createdAt,value
2023-02-03T00:00:42.446Z,8.31
2023-02-03T00:03:15.607Z,8.31
2023-02-03T00:05:44.251Z,8.31
2023-02-03T00:08:13.468Z,8.32
2023-02-03T00:10:41.482Z,8.29
2023-02-03T00:13:10.325Z,8.23
2023-02-03T00:15:38.097Z,8.22
2023-02-03T00:18:06.403Z,8.18
2023-02-03T00:20:35.555Z,8.21
2023-02-03T00:23:08.048Z,8.20
2023-02-03T00:25:36.343Z,8.19
2023-02-03T00:28:04.501Z,8.24
2023-02-03T00:30:32.906Z,8.24
2023-02-03T00:33:01.586Z,8.26
2023-02-03T00:35:29.529Z,8.26
2023-02-03T00:37:59.249Z,8.26
2023-02-03T00:40:29.855Z,8.28
2023-02-03T00:42:57.869Z,8.26
2023-02-03T00:45:25.641Z,8.27
2023-02-03T00:47:53.595Z,8.28
2023-02-03T00:50:21.481Z,8.30
2023-02-03T00:52:49.329Z,8.29
2023-02-03T00:55:18.638Z,8.28
2023-02-03T00:57:46.689Z,8.29
2023-02-03T01:00:15.290Z,8.30
2023-02-03T01:02:43.209Z,8.30
2023-02-03T01:05:11.153Z,8.29
2023-02-03T01:07:39.272Z,8.30
2023-02-03T01:10:08.347Z,8.29
2023-02-03T01:12:37.621Z,8.31
2023-02-03T01:15:06.220Z,8.34
2023-02-03T01:17:34.108Z,8.32
2023-02-03T01:20:01.937Z,8.33
2023-02-03T01:22:30.610Z,8.34
2023-02-03T01:24:58.834Z,8.38
2023-02-03T01:27:26.676Z,8.38
2023-02-03T01:29:58.126Z,8.37
2023-02-03T01:32:27.637Z,8.37
2023-02-03T01:34:55.513Z,8.37
2023-02-03T01:37:23.333Z,8.41
2023-02-03T01:39:51.130Z,8.44
2023-02-03T01:42:18.944Z,8.43
2023-02-03T01:44:49.353Z,8.41
2023-02-03T01:47:28.904Z,8.42
2023-02-03T01:50:03.701Z,8.42
2023-02-03T01:52:32.711Z,8.43
2023-02-03T01:55:03.585Z,8.43
2023-02-03T01:57:35.776Z,8.50
2023-02-03T02:00:06.070Z,8.55
2023-02-03T02:02:44.503Z,8.51
2023-02-03T02:05:20.645Z,8.51
2023-02-03T02:07:49.688Z,8.50
2023-02-03T02:10:17.865Z,8.55
2023-02-03T02:12:45.988Z,8.55
2023-02-03T02:15:14.595Z,8.50
2023-02-03T02:18:09.266Z,8.50
2023-02-03T02:20:59.843Z,8.47
2023-02-03T02:23:53.587Z,8.48
2023-02-03T02:26:44.724Z,8.49
2023-02-03T02:29:41.546Z,8.46
2023-02-03T02:32:22.685Z,8.51
2023-02-03T02:35:02.642Z,8.49
2023-02-03T02:37:39.505Z,8.46
2023-02-03T02:40:17.216Z,8.47
2023-02-03T02:42:57.669Z,8.45
2023-02-03T02:45:30.281Z,8.44
2023-02-03T02:48:06.476Z,8.42
2023-02-03T02:50:39.677Z,8.42
2023-02-03T02:53:09.819Z,8.40
2023-02-03T02:55:41.842Z,8.41
2023-02-03T02:58:13.546Z,8.40
2023-02-03T03:00:42.193Z,8.37
2023-02-03T03:03:15.654Z,8.39
2023-02-03T03:05:52.110Z,8.41
2023-02-03T03:08:26.719Z,8.40
2023-02-03T03:10:57.613Z,8.39
2023-02-03T03:13:30.755Z,8.35
2023-02-03T03:16:04.049Z,8.35
2023-02-03T03:18:36.172Z,8.36
2023-02-03T03:21:07.012Z,8.38
2023-02-03T03:23:39.554Z,8.39
2023-02-03T03:26:13.711Z,8.40
2023-02-03T03:28:48.713Z,8.41
2023-02-03T03:31:18.309Z,8.44
2023-02-03T03:33:48.875Z,8.44
2023-02-03T03:36:24.950Z,8.44
2023-02-03T03:38:58.183Z,8.46
2023-02-03T03:41:33.196Z,8.47
2023-02-03T03:44:05.949Z,8.47
2023-02-03T03:46:41.292Z,8.47
2023-02-03T03:49:12.408Z,8.47
2023-02-03T03:51:45.898Z,8.46
2023-02-03T03:54:17.494Z,8.46
2023-02-03T03:56:51.695Z,8.47
2023-02-03T03:59:23.481Z,8.47
2023-02-03T04:01:52.810Z,8.45
2023-02-03T04:04:24.493Z,8.47
2023-02-03T04:06:54.174Z,8.50
2023-02-03T04:09:21.988Z,8.47
2023-02-03T04:12:06.183Z,8.46
2023-02-03T04:14:37.865Z,8.45
2023-02-03T04:17:06.124Z,8.46
2023-02-03T04:19:35.275Z,8.46
2023-02-03T04:22:03.057Z,8.45
2023-02-03T04:24:31.148Z,8.47
2023-02-03T04:26:58.960Z,8.43
2023-02-03T04:29:26.803Z,8.46
2023-02-03T04:31:54.630Z,8.46
2023-02-03T04:34:22.448Z,8.45
2023-02-03T04:36:51.682Z,8.46
2023-02-03T04:39:19.595Z,8.48
2023-02-03T04:41:47.357Z,8.47
2023-02-03T04:44:15.428Z,8.50
2023-02-03T04:46:43.189Z,8.51
2023-02-03T04:49:11.716Z,8.49
2023-02-03T04:51:39.617Z,8.49
2023-02-03T04:54:09.016Z,8.48
2023-02-03T04:56:36.855Z,8.50
2023-02-03T04:59:04.781Z,8.49
2023-02-03T05:01:32.614Z,8.48
2023-02-03T05:04:00.413Z,8.48
2023-02-03T05:06:30.327Z,8.49
2023-02-03T05:08:58.128Z,8.48
2023-02-03T05:11:27.709Z,8.51
2023-02-03T05:13:56.153Z,8.51
2023-02-03T05:16:24.380Z,8.50
2023-02-03T05:18:52.344Z,8.51
2023-02-03T05:21:20.468Z,8.48
2023-02-03T05:23:48.303Z,8.50
2023-02-03T05:26:16.131Z,8.51
2023-02-03T05:28:45.295Z,8.47
2023-02-03T05:31:13.257Z,8.49
2023-02-03T05:33:41.104Z,8.50
2023-02-03T05:36:10.101Z,8.53
2023-02-03T05:38:37.878Z,8.53
2023-02-03T05:41:23.263Z,8.51
2023-02-03T05:43:53.551Z,8.56
2023-02-03T05:46:21.329Z,8.55
2023-02-03T05:48:49.352Z,8.58
2023-02-03T05:51:17.157Z,8.56
2023-02-03T05:53:45.107Z,8.60
2023-02-03T05:56:13.651Z,8.59
2023-02-03T05:58:41.577Z,8.60
2023-02-03T06:01:12.929Z,8.60
2023-02-03T06:03:40.964Z,8.59
2023-02-03T06:06:09.048Z,8.56
2023-02-03T06:08:36.906Z,8.53
2023-02-03T06:11:05.119Z,8.55
2023-02-03T06:13:33.082Z,8.50
2023-02-03T06:16:00.862Z,8.51
2023-02-03T06:18:30.465Z,8.52
2023-02-03T06:20:58.310Z,8.50
2023-02-03T06:23:26.101Z,8.55
2023-02-03T06:25:54.036Z,8.55
2023-02-03T06:28:21.823Z,8.54
2023-02-03T06:30:52.126Z,8.58
2023-02-03T06:33:20.234Z,8.64
2023-02-03T06:35:49.488Z,8.62
2023-02-03T06:38:17.310Z,8.60
2023-02-03T06:40:47.603Z,8.62
2023-02-03T06:43:15.707Z,8.64
2023-02-03T06:45:47.226Z,8.63
2023-02-03T06:48:15.577Z,8.63
2023-02-03T06:50:45.144Z,8.61
2023-02-03T06:53:15.630Z,8.62
2023-02-03T06:55:43.475Z,8.62
2023-02-03T06:58:11.378Z,8.61
2023-02-03T07:00:39.136Z,8.63
2023-02-03T07:03:06.934Z,8.65
2023-02-03T07:05:35.964Z,8.61
2023-02-03T07:08:04.074Z,8.62
2023-02-03T07:10:33.208Z,8.64
2023-02-03T07:13:04.543Z,8.63
2023-02-03T07:15:32.508Z,8.64
2023-02-03T07:18:00.407Z,8.64
2023-02-03T07:20:29.741Z,8.69
2023-02-03T07:22:59.215Z,8.70
2023-02-03T07:25:27.475Z,8.70
2023-02-03T07:27:56.727Z,8.69
2023-02-03T07:30:24.694Z,8.71
2023-02-03T07:32:54.003Z,8.69
2023-02-03T07:35:22.225Z,8.69
2023-02-03T07:37:50.124Z,8.75
2023-02-03T07:40:18.788Z,8.75
2023-02-03T07:42:48.221Z,8.75
2023-02-03T07:45:18.797Z,8.78
2023-02-03T07:47:46.619Z,8.78
2023-02-03T07:50:14.441Z,8.80
2023-02-03T07:52:43.133Z,8.84
2023-02-03T07:55:11.113Z,8.83
2023-02-03T07:57:43.317Z,8.84
2023-02-03T08:00:12.939Z,8.84
2023-02-03T08:02:42.172Z,8.87
2023-02-03T08:05:10.701Z,8.89
2023-02-03T08:07:38.773Z,8.91
2023-02-03T08:10:07.528Z,8.94
2023-02-03T08:12:35.531Z,8.91
2023-02-03T08:15:03.563Z,8.94
2023-02-03T08:17:31.387Z,8.98
2023-02-03T08:20:00.873Z,8.99
2023-02-03T08:22:28.897Z,9.00
2023-02-03T08:24:56.684Z,9.02
2023-02-03T08:27:24.737Z,9.07
2023-02-03T08:29:52.635Z,9.08
2023-02-03T08:32:22.819Z,9.08
2023-02-03T08:34:51.260Z,9.08
2023-02-03T08:37:24.391Z,9.04
2023-02-03T08:39:52.599Z,9.03
2023-02-03T08:42:21.008Z,9.05
2023-02-03T08:44:49.265Z,9.08
2023-02-03T08:47:17.192Z,9.08
2023-02-03T08:49:45.416Z,9.08
2023-02-03T08:52:14.210Z,9.09
2023-02-03T08:54:43.860Z,9.08
2023-02-03T08:57:12.184Z,9.09
2023-02-03T08:59:42.011Z,9.09
2023-02-03T09:02:14.780Z,9.08
2023-02-03T09:04:42.596Z,9.08
2023-02-03T09:07:11.100Z,9.08
2023-02-03T09:09:39.209Z,9.03
2023-02-03T09:12:08.672Z,8.98
2023-02-03T09:14:36.739Z,8.96
2023-02-03T09:17:05.839Z,8.96
2023-02-03T09:19:36.184Z,8.94
2023-02-03T09:22:04.648Z,8.95
2023-02-03T09:24:32.566Z,8.94
2023-02-03T09:27:01.671Z,8.95
2023-02-03T09:29:30.824Z,8.96
2023-02-03T09:31:58.689Z,8.96
2023-02-03T09:34:26.465Z,8.95
2023-02-03T09:36:54.300Z,8.96
2023-02-03T09:39:22.104Z,8.96
2023-02-03T09:42:07.584Z,8.94
2023-02-03T09:44:43.936Z,8.94
2023-02-03T09:47:15.456Z,8.93
2023-02-03T09:49:47.517Z,8.92
2023-02-03T09:52:19.554Z,8.95
2023-02-03T09:54:53.571Z,8.97
2023-02-03T09:57:23.609Z,8.96
2023-02-03T09:59:56.671Z,8.95
2023-02-03T10:02:47.322Z,8.94
2023-02-03T10:05:23.724Z,8.97
2023-02-03T10:08:03.623Z,8.96
2023-02-03T10:10:39.911Z,8.93
2023-02-03T10:13:17.010Z,8.93
2023-02-03T10:16:01.264Z,8.93
2023-02-03T10:18:33.170Z,8.93
2023-02-03T10:21:06.319Z,8.96
2023-02-03T10:23:37.368Z,8.96
2023-02-03T10:26:08.977Z,8.92
2023-02-03T10:28:40.951Z,8.87
2023-02-03T10:31:20.539Z,8.88
2023-02-03T10:33:49.248Z,8.87
2023-02-03T10:36:21.841Z,8.89
2023-02-03T10:39:00.633Z,8.84
2023-02-03T10:41:31.358Z,8.76
2023-02-03T10:43:59.825Z,8.74
2023-02-03T10:46:33.009Z,8.78
2023-02-03T10:49:01.023Z,8.82
2023-02-03T10:51:31.963Z,8.82
2023-02-03T10:54:01.203Z,8.83
2023-02-03T10:56:33.617Z,8.90
2023-02-03T10:59:02.251Z,8.94
2023-02-03T11:01:46.698Z,8.93
2023-02-03T11:04:26.801Z,9.04
2023-02-03T11:07:02.098Z,9.05
2023-02-03T11:09:34.101Z,9.13
2023-02-03T11:12:17.281Z,9.08
2023-02-03T11:14:46.649Z,9.08
2023-02-03T11:17:19.674Z,9.13
2023-02-03T11:19:49.487Z,9.10
2023-02-03T11:22:29.576Z,8.97
2023-02-03T11:24:58.476Z,8.98
2023-02-03T11:27:27.726Z,9.01
2023-02-03T11:30:11.005Z,9.05
2023-02-03T11:32:42.691Z,9.01
2023-02-03T11:35:17.482Z,8.99
2023-02-03T11:37:46.643Z,9.08
2023-02-03T11:40:27.715Z,9.06
2023-02-03T11:43:04.900Z,9.02
2023-02-03T11:45:41.794Z,9.09
2023-02-03T11:48:25.023Z,9.08
2023-02-03T11:50:59.484Z,9.09
2023-02-03T11:53:34.411Z,9.10
2023-02-03T11:56:32.601Z,9.09
2023-02-03T11:59:16.935Z,9.03
2023-02-03T12:02:09.573Z,9.08
2023-02-03T12:05:03.062Z,9.07
2023-02-03T12:07:52.641Z,9.06
2023-02-03T12:10:40.938Z,9.04
2023-02-03T12:13:25.898Z,9.04
2023-02-03T12:16:08.059Z,8.98
2023-02-03T12:18:47.092Z,9.02
2023-02-03T12:21:35.165Z,9.01
2023-02-03T12:24:10.695Z,9.03
2023-02-03T12:26:48.461Z,9.04
2023-02-03T12:29:22.195Z,9.09
2023-02-03T12:31:56.374Z,9.07
2023-02-03T12:34:30.332Z,9.07
2023-02-03T12:37:04.878Z,9.08
2023-02-03T12:39:37.654Z,9.10
2023-02-03T12:42:08.211Z,9.08
2023-02-03T12:44:45.509Z,9.09
2023-02-03T12:47:18.291Z,9.12
2023-02-03T12:49:51.602Z,9.12
2023-02-03T12:52:26.732Z,9.13
2023-02-03T12:55:02.288Z,9.13
2023-02-03T12:57:36.449Z,9.16
2023-02-03T13:00:21.521Z,9.19
2023-02-03T13:03:03.357Z,9.18
2023-02-03T13:05:39.224Z,9.21
2023-02-03T13:08:16.668Z,9.25
2023-02-03T13:10:49.711Z,9.27
2023-02-03T13:13:24.728Z,9.27
2023-02-03T13:15:56.370Z,9.30
2023-02-03T13:18:29.554Z,9.27
2023-02-03T13:20:57.892Z,9.25
2023-02-03T13:23:27.954Z,9.27
2023-02-03T13:26:22.712Z,9.28
2023-02-03T13:29:05.312Z,9.26
2023-02-03T13:31:47.628Z,9.29
2023-02-03T13:34:30.662Z,9.23
2023-02-03T13:37:37.696Z,9.23
2023-02-03T13:40:23.692Z,9.18
2023-02-03T13:42:56.431Z,9.10
2023-02-03T13:45:30.106Z,9.09
2023-02-03T13:48:06.484Z,9.08
2023-02-03T13:50:35.397Z,9.05
2023-02-03T13:53:07.816Z,8.97
2023-02-03T13:55:41.034Z,8.94
2023-02-03T13:58:21.510Z,8.91
2023-02-03T14:01:25.699Z,8.90
2023-02-03T14:03:54.751Z,8.89
2023-02-03T14:07:01.965Z,8.87
2023-02-03T14:09:38.570Z,8.88
2023-02-03T14:12:42.139Z,8.81
2023-02-03T14:15:32.722Z,8.78
2023-02-03T14:18:34.697Z,8.73
2023-02-03T14:21:21.971Z,8.71
2023-02-03T14:23:55.380Z,8.74
2023-02-03T14:26:38.638Z,8.72
2023-02-03T14:29:09.698Z,8.70
2023-02-03T14:31:56.621Z,8.70
2023-02-03T14:34:34.083Z,8.74
2023-02-03T14:37:19.261Z,8.70
2023-02-03T14:40:30.486Z,8.72
2023-02-03T14:43:14.052Z,8.71
2023-02-03T14:46:33.477Z,8.68
2023-02-03T14:49:31.527Z,8.69
2023-02-03T14:52:12.910Z,8.71
2023-02-03T14:54:55.112Z,8.75
2023-02-03T14:57:36.394Z,8.79
2023-02-03T15:00:10.637Z,8.84
2023-02-03T15:03:19.986Z,8.91
2023-02-03T15:05:49.259Z,8.96
2023-02-03T15:08:36.500Z,8.98
2023-02-03T15:11:27.599Z,8.99
2023-02-03T15:13:57.088Z,8.96
2023-02-03T15:16:27.401Z,8.93
2023-02-03T15:18:59.762Z,8.93
2023-02-03T15:21:27.945Z,8.90
2023-02-03T15:23:56.045Z,8.87
2023-02-03T15:26:25.989Z,8.90
2023-02-03T15:28:59.042Z,8.90
2023-02-03T15:31:33.922Z,8.93
2023-02-03T15:34:10.498Z,8.92
2023-02-03T15:36:44.395Z,8.88
2023-02-03T15:39:24.276Z,8.89
2023-02-03T15:41:55.783Z,8.87
2023-02-03T15:44:31.729Z,8.89
2023-02-03T15:47:02.414Z,8.86
2023-02-03T15:49:35.642Z,8.86
2023-02-03T15:52:08.821Z,8.87
2023-02-03T15:54:41.469Z,8.90
2023-02-03T15:57:12.249Z,8.89
2023-02-03T15:59:42.591Z,8.92
2023-02-03T16:02:18.484Z,8.92
2023-02-03T16:04:47.909Z,8.91
2023-02-03T16:07:19.551Z,8.90
2023-02-03T16:09:47.730Z,8.91
2023-02-03T16:12:23.440Z,8.90
2023-02-03T16:14:51.725Z,8.91
2023-02-03T16:17:25.151Z,8.91
2023-02-03T16:20:29.390Z,8.91
2023-02-03T16:23:04.025Z,8.92
2023-02-03T16:25:34.818Z,8.92
2023-02-03T16:28:23.314Z,8.92
2023-02-03T16:31:15.441Z,8.85
2023-02-03T16:34:04.165Z,8.84
2023-02-03T16:36:51.102Z,8.84
2023-02-03T16:39:36.480Z,8.83
2023-02-03T16:42:33.885Z,8.76
2023-02-03T16:45:19.248Z,8.72
2023-02-03T16:48:05.085Z,8.64
2023-02-03T16:50:52.644Z,8.59
2023-02-03T16:53:24.718Z,8.57
2023-02-03T16:55:54.561Z,8.53
2023-02-03T16:58:22.985Z,8.48
2023-02-03T17:00:53.002Z,8.43
2023-02-03T17:03:23.695Z,8.38
2023-02-03T17:05:52.968Z,8.40
2023-02-03T17:08:23.676Z,8.33
2023-02-03T17:10:52.430Z,8.32
2023-02-03T17:13:22.605Z,8.28
2023-02-03T17:15:52.785Z,8.25
2023-02-03T17:18:21.302Z,8.24
2023-02-03T17:20:49.169Z,8.24
2023-02-03T17:23:17.509Z,8.25
2023-02-03T17:25:47.874Z,8.21
2023-02-03T17:28:16.183Z,8.22
2023-02-03T17:30:44.211Z,8.17
2023-02-03T17:33:12.945Z,8.17
2023-02-03T17:35:42.392Z,8.16
2023-02-03T17:38:10.476Z,8.18
2023-02-03T17:54:35.869Z,8.12
2023-02-03T17:57:05.191Z,8.10
2023-02-03T17:59:38.080Z,8.06
2023-02-03T18:02:06.077Z,8.08
2023-02-03T18:04:34.938Z,8.10
2023-02-03T18:07:02.745Z,8.10
2023-02-03T18:09:30.725Z,8.07
2023-02-03T18:11:58.598Z,8.08
2023-02-03T18:14:26.398Z,8.06
2023-02-03T18:16:57.331Z,8.07
2023-02-03T18:19:25.369Z,8.07
2023-02-03T18:21:53.315Z,8.05
2023-02-03T18:24:22.564Z,8.06
2023-02-03T18:26:52.872Z,8.02
2023-02-03T18:29:21.301Z,8.03
2023-02-03T18:31:49.552Z,8.00
2023-02-03T18:34:18.795Z,8.00
2023-02-03T18:36:47.187Z,8.00
2023-02-03T18:39:18.038Z,7.96
2023-02-03T18:41:48.180Z,7.98
2023-02-03T18:44:16.070Z,8.02
2023-02-03T18:46:43.823Z,7.98
2023-02-03T18:49:13.063Z,7.98
2023-02-03T18:51:42.267Z,8.03
2023-02-03T18:54:10.748Z,8.04
2023-02-03T18:56:38.613Z,8.02
2023-02-03T18:59:08.718Z,8.01
2023-02-03T19:01:38.680Z,8.01
2023-02-03T19:04:07.142Z,8.02
2023-02-03T19:06:35.839Z,8.07
2023-02-03T19:09:06.656Z,8.03
2023-02-03T19:11:35.046Z,8.04
2023-02-03T19:14:02.958Z,8.04
2023-02-03T19:16:31.004Z,8.03
2023-02-03T19:18:58.824Z,8.01
2023-02-03T19:21:26.676Z,8.01
2023-02-03T19:23:54.602Z,7.95
2023-02-03T19:26:23.862Z,7.93
2023-02-03T19:28:52.540Z,7.93
2023-02-03T19:31:20.491Z,7.94
2023-02-03T19:33:48.393Z,7.94
2023-02-03T19:36:17.190Z,7.94
2023-02-03T19:38:45.030Z,7.95
2023-02-03T19:41:13.554Z,7.95
2023-02-03T19:43:42.838Z,7.96
2023-02-03T19:46:10.847Z,8.01
2023-02-03T19:48:39.592Z,8.05
2023-02-03T19:51:08.024Z,8.06
2023-02-03T19:53:36.445Z,8.06
2023-02-03T19:56:04.522Z,8.11
2023-02-03T19:58:32.478Z,8.15
2023-02-03T20:01:01.856Z,8.13
2023-02-03T20:03:30.029Z,8.18
2023-02-03T20:05:59.261Z,8.20
2023-02-03T20:08:27.914Z,8.16
2023-02-03T20:10:55.753Z,8.15
2023-02-03T20:13:23.683Z,8.15
2023-02-03T20:15:51.934Z,8.11
2023-02-03T20:18:21.698Z,8.12
2023-02-03T20:20:51.612Z,8.12
2023-02-03T20:23:19.834Z,8.13
2023-02-03T20:25:50.134Z,8.13
2023-02-03T20:28:18.696Z,8.13
2023-02-03T20:30:47.144Z,8.16
2023-02-03T20:33:15.017Z,8.17
2023-02-03T20:35:44.460Z,8.16
2023-02-03T20:38:12.251Z,8.22
2023-02-03T20:40:40.211Z,8.21
2023-02-03T20:43:16.245Z,8.18
2023-02-03T20:45:44.684Z,8.20
2023-02-03T20:48:13.722Z,8.24
2023-02-03T20:50:46.638Z,8.22
2023-02-03T20:53:17.950Z,8.20
2023-02-03T20:55:46.773Z,8.22
2023-02-03T20:58:18.866Z,8.18
2023-02-03T21:00:47.661Z,8.22
2023-02-03T21:03:34.180Z,8.20
2023-02-03T21:06:02.284Z,8.19
2023-02-03T21:08:31.644Z,8.19
2023-02-03T21:10:59.486Z,8.19
2023-02-03T21:13:30.099Z,8.19
2023-02-03T21:16:02.740Z,8.20
2023-02-03T21:18:38.713Z,8.19
2023-02-03T21:21:14.979Z,8.15
2023-02-03T21:23:47.724Z,8.14
2023-02-03T21:26:19.181Z,8.14
2023-02-03T21:28:48.769Z,8.13
2023-02-03T21:31:23.307Z,8.15
2023-02-03T21:33:56.246Z,8.17
2023-02-03T21:36:26.249Z,8.15
2023-02-03T21:38:57.265Z,8.12
2023-02-03T21:41:26.801Z,8.11
2023-02-03T21:43:56.897Z,8.07
2023-02-03T21:46:27.457Z,8.06
2023-02-03T21:48:56.618Z,8.03
2023-02-03T21:51:26.586Z,8.04
2023-02-03T21:53:57.392Z,8.03
2023-02-03T21:56:27.689Z,8.01
2023-02-03T21:58:58.903Z,7.99
2023-02-03T22:01:28.213Z,7.99
2023-02-03T22:03:58.963Z,7.98
2023-02-03T22:06:28.871Z,7.98
2023-02-03T22:08:59.314Z,7.97
2023-02-03T22:11:29.285Z,7.95
2023-02-03T22:13:58.326Z,7.96
2023-02-03T22:16:26.813Z,7.95
2023-02-03T22:18:54.649Z,7.96
2023-02-03T22:21:22.860Z,7.92
2023-02-03T22:23:51.130Z,7.95
2023-02-03T22:26:20.622Z,7.94
2023-02-03T22:28:48.463Z,7.94
2023-02-03T22:31:17.044Z,7.92
2023-02-03T22:33:45.040Z,7.94
2023-02-03T22:36:14.699Z,7.89
2023-02-03T22:38:43.332Z,7.91
2023-02-03T22:41:13.004Z,7.90
2023-02-03T22:43:42.341Z,7.91
2023-02-03T22:46:10.203Z,7.87
2023-02-03T22:48:38.041Z,7.90
2023-02-03T22:51:06.169Z,7.85
2023-02-03T22:53:34.749Z,7.88
2023-02-03T22:56:02.837Z,7.88
2023-02-03T22:58:30.647Z,7.85
2023-02-03T23:00:59.747Z,7.87
2023-02-03T23:03:28.066Z,7.85
2023-02-03T23:05:56.426Z,7.86
2023-02-03T23:08:25.000Z,7.87
2023-02-03T23:10:53.064Z,7.86
2023-02-03T23:13:20.922Z,7.86
2023-02-03T23:15:48.796Z,7.85
2023-02-03T23:18:18.059Z,7.83
2023-02-03T23:20:45.843Z,7.84
2023-02-03T23:23:14.486Z,7.85
2023-02-03T23:25:42.285Z,7.84
2023-02-03T23:28:10.466Z,7.84
2023-02-03T23:30:38.361Z,7.83
2023-02-03T23:33:06.164Z,7.82
2023-02-03T23:35:46.388Z,7.81
2023-02-03T23:38:14.832Z,7.83
2023-02-03T23:40:42.978Z,7.82
2023-02-03T23:43:10.793Z,7.79
2023-02-03T23:45:38.678Z,7.81
2023-02-03T23:48:07.504Z,7.80
2023-02-03T23:50:36.688Z,7.76
2023-02-03T23:53:04.580Z,7.77
2023-02-03T23:55:32.410Z,7.73
2023-02-03T23:58:00.281Z,7.74
